Time;durP1;ratioP1;P1;durP2;ratioP2;P2;SDS_P1;SDS_P2;PMS_P1;PMS_P2;Temp;Humidity;BMP_temperature;BMP_pressure;BME280_temperature;BME280_humidity;BME280_pressure;Samples;Min_cycle;Max_cycle;Signal;HPM_P1;HPM_P2
2021/12/04 00:02:00;;;;;;;54.15;6.30;;;26.00;27.30;;;;;;5055406;28;20527;-66
2021/12/04 00:04:31;;;;;;;60.67;6.28;;;25.90;27.80;;;;;;5055291;28;20412;-65
2021/12/04 00:06:58;;;;;;;38.20;5.30;;;25.70;28.30;;;;;;5072221;28;20520;-65
2021/12/04 00:09:24;;;;;;;36.95;5.45;;;25.60;28.90;;;;;;5039591;28;20126;-64
2021/12/04 00:11:55;;;;;;;38.00;4.75;;;25.40;29.60;;;;;;5056358;28;20076;-64
2021/12/04 00:14:22;;;;;;;43.75;5.25;;;25.30;30.00;;;;;;5038649;28;20077;-66
2021/12/04 00:16:49;;;;;;;27.73;3.88;;;25.20;30.40;;;;;;5077580;28;20100;-67
2021/12/04 00:19:16;;;;;;;29.45;3.05;;;25.10;29.40;;;;;;5054436;28;20155;-67
2021/12/04 00:21:42;;;;;;;23.67;3.38;;;25.00;29.20;;;;;;5054990;28;20073;-65
2021/12/04 00:24:09;;;;;;;24.50;4.10;;;24.90;29.70;;;;;;5073869;28;20077;-65
2021/12/04 00:26:36;;;;;;;27.73;3.85;;;24.70;30.60;;;;;;5058533;28;20546;-62
2021/12/04 00:29:03;;;;;;;29.02;3.88;;;25.90;31.70;;;;;;5072441;28;20073;-66
2021/12/04 00:31:30;;;;;;;23.70;4.80;;;24.40;31.80;;;;;;5054195;28;20164;-66
2021/12/04 00:33:56;;;;;;;41.25;4.85;;;24.30;32.40;;;;;;5053769;28;20199;-66
2021/12/04 00:36:40;;;;;;;26.63;5.38;;;24.10;32.90;;;;;;5055330;28;20069;-66
2021/12/04 00:50:06;;;;;;;52.38;6.60;;;23.30;35.20;;;;;;5071796;28;20533;-63
2021/12/04 00:52:32;;;;;;;62.28;7.95;;;23.20;35.70;;;;;;5054516;28;20136;-64
2021/12/04 00:54:59;;;;;;;47.50;6.90;;;23.10;36.10;;;;;;5054235;28;20077;-60
2021/12/04 00:57:25;;;;;;;66.22;7.13;;;23.00;36.30;;;;;;5072663;28;20533;-64
2021/12/04 00:59:51;;;;;;;69.68;9.10;;;22.90;36.60;;;;;;5053542;28;20077;-64
2021/12/04 01:02:19;;;;;;;114.30;11.55;;;22.70;37.00;;;;;;5071495;28;20080;-68
2021/12/04 01:04:45;;;;;;;192.38;17.70;;;22.70;37.40;;;;;;5055699;28;20088;-66
2021/12/04 01:07:12;;;;;;;149.63;15.65;;;22.60;37.80;;;;;;5070018;28;20194;-64
2021/12/04 01:09:39;;;;;;;104.20;12.93;;;22.50;38.10;;;;;;5052446;28;20081;-63
2021/12/04 01:12:06;;;;;;;120.45;13.95;;;22.40;38.30;;;;;;5054011;28;20171;-65
2021/12/04 01:14:32;;;;;;;111.57;12.18;;;22.30;38.70;;;;;;5054032;28;20065;-65
2021/12/04 01:17:00;;;;;;;103.50;13.00;;;22.20;38.80;;;;;;5054122;28;20080;-62
2021/12/04 01:19:27;;;;;;;59.30;11.98;;;22.10;38.90;;;;;;5052741;28;20080;-61
2021/12/04 01:21:54;;;;;;;83.32;13.68;;;22.00;39.40;;;;;;5055227;28;20541;-62
2021/12/04 01:24:21;;;;;;;118.03;14.25;;;21.90;39.80;;;;;;5073902;28;20080;-63
2021/12/04 01:26:48;;;;;;;78.72;12.77;;;21.90;40.40;;;;;;5077643;28;20451;-62
2021/12/04 01:29:16;;;;;;;88.05;13.45;;;21.80;40.80;;;;;;5064658;28;21391;-61
2021/12/04 01:31:43;;;;;;;93.68;12.30;;;21.70;41.10;;;;;;5049295;28;20076;-61
2021/12/04 01:34:10;;;;;;;83.22;12.13;;;21.60;41.20;;;;;;5044628;28;20214;-61
2021/12/04 01:36:37;;;;;;;73.10;12.73;;;21.60;41.20;;;;;;5036384;28;20069;-64
2021/12/04 01:39:05;;;;;;;85.07;13.95;;;21.50;41.40;;;;;;5054816;28;20160;-63
2021/12/04 01:41:35;;;;;;;68.75;13.05;;;21.40;41.70;;;;;;5054721;28;20549;-63
2021/12/04 01:44:04;;;;;;;66.40;13.43;;;21.40;42.00;;;;;;5078072;28;20069;-61
2021/12/04 01:46:31;;;;;;;61.95;13.45;;;21.30;42.10;;;;;;5074809;28;20500;-62
2021/12/04 01:48:57;;;;;;;63.83;14.43;;;21.30;41.90;;;;;;5067431;22;20146;-60
2021/12/04 01:51:24;;;;;;;76.50;16.67;;;21.10;42.00;;;;;;5035361;28;20162;-63
2021/12/04 01:53:51;;;;;;;87.78;17.58;;;21.00;42.60;;;;;;5031835;28;20095;-62
2021/12/04 01:56:18;;;;;;;96.20;18.17;;;20.90;43.00;;;;;;5029124;28;20417;-61
2021/12/04 01:58:44;;;;;;;95.38;18.35;;;20.80;43.10;;;;;;5030125;28;21141;-63
2021/12/04 02:01:11;;;;;;;71.68;16.95;;;20.80;43.50;;;;;;5034210;28;20411;-62
2021/12/04 02:03:37;;;;;;;68.10;16.50;;;20.70;43.40;;;;;;5047135;28;20108;-61
2021/12/04 02:06:04;;;;;;;73.90;16.80;;;20.70;43.40;;;;;;5048850;28;20074;-62
2021/12/04 02:08:31;;;;;;;91.13;14.90;;;20.60;43.90;;;;;;5033534;28;20094;-61
2021/12/04 02:11:00;;;;;;;70.07;14.00;;;20.50;44.50;;;;;;5049470;28;20073;-61
2021/12/04 02:13:26;;;;;;;72.97;13.75;;;20.50;44.30;;;;;;5048030;28;20144;-61
2021/12/04 02:15:54;;;;;;;86.10;15.63;;;20.40;44.60;;;;;;5048413;28;20516;-61
2021/12/04 02:18:22;;;;;;;88.63;15.43;;;20.30;45.10;;;;;;5047758;28;20524;-61
2021/12/04 02:20:50;;;;;;;100.10;14.82;;;20.30;45.40;;;;;;5031812;28;20077;-62
2021/12/04 02:23:16;;;;;;;91.93;16.45;;;20.20;45.80;;;;;;5029208;28;20623;-62
2021/12/04 02:25:43;;;;;;;99.40;17.70;;;20.20;46.10;;;;;;5033055;28;20124;-64
2021/12/04 02:28:11;;;;;;;100.53;16.90;;;20.20;46.20;;;;;;5027946;28;20172;-63
2021/12/04 02:30:43;;;;;;;109.10;19.27;;;20.20;46.40;;;;;;5047615;28;20086;-61
2021/12/04 02:33:12;;;;;;;120.28;20.17;;;20.10;46.40;;;;;;5048214;28;20132;-63
2021/12/04 02:35:46;;;;;;;125.28;21.77;;;20.00;47.00;;;;;;5047830;28;20078;-62
2021/12/04 02:38:12;;;;;;;109.55;20.52;;;20.00;47.20;;;;;;5044320;28;20078;-62
2021/12/04 02:40:42;;;;;;;135.73;25.70;;;19.90;47.20;;;;;;5027406;28;20074;-64
2021/12/04 02:43:09;;;;;;;156.98;28.13;;;19.90;47.20;;;;;;5025544;28;20074;-63
2021/12/04 02:45:36;;;;;;;144.02;30.02;;;19.90;47.30;;;;;;5026681;28;20070;-64
2021/12/04 02:48:03;;;;;;;161.75;31.73;;;19.90;47.50;;;;;;5043065;28;20564;-65
2021/12/04 02:50:29;;;;;;;153.13;33.38;;;19.80;47.70;;;;;;5025998;28;20491;-63
2021/12/04 02:52:55;;;;;;;;;;;19.80;48.00;;;;;;5028813;28;20252;-65
2021/12/04 02:55:22;;;;;;;175.50;38.50;;;19.70;48.00;;;;;;5026653;28;20471;-62
2021/12/04 02:57:48;;;;;;;164.02;38.08;;;19.70;48.20;;;;;;5029372;28;20173;-62
2021/12/04 03:00:20;;;;;;;161.00;39.70;;;19.70;48.30;;;;;;5029525;28;20090;-64
2021/12/04 03:02:47;;;;;;;162.35;39.47;;;19.70;48.60;;;;;;5029607;28;20077;-64
2021/12/04 03:05:14;;;;;;;155.50;37.25;;;19.60;48.90;;;;;;5021896;28;20081;-63
2021/12/04 03:07:40;;;;;;;150.25;39.28;;;19.60;49.30;;;;;;5012072;28;20094;-62
2021/12/04 03:10:08;;;;;;;156.30;38.38;;;19.50;49.40;;;;;;5028747;28;20204;-64
2021/12/04 03:12:37;;;;;;;156.30;40.05;;;19.50;49.60;;;;;;5028851;28;20176;-63
2021/12/04 03:15:04;;;;;;;190.40;44.42;;;19.40;50.20;;;;;;5012382;28;20070;-62
2021/12/04 03:17:30;;;;;;;171.50;42.92;;;19.40;50.50;;;;;;5030226;28;20078;-64
2021/12/04 03:19:57;;;;;;;157.88;43.30;;;19.30;51.00;;;;;;5045025;28;20599;-63
2021/12/04 03:22:23;;;;;;;;;;;19.30;51.40;;;;;;5029149;28;20085;-62
2021/12/04 03:24:52;;;;;;;184.73;44.17;;;19.20;51.70;;;;;;5050855;28;20060;-62
2021/12/04 03:27:20;;;;;;;171.20;46.47;;;19.20;51.80;;;;;;5028867;28;20346;-62
2021/12/04 03:29:56;;;;;;;160.88;45.03;;;19.20;52.10;;;;;;5045134;28;20596;-63
2021/12/04 03:40:58;;;;;;;159.98;45.50;;;19.10;52.40;;;;;;5044185;28;20232;-63
2021/12/04 03:43:25;;;;;;;151.82;44.70;;;19.10;52.30;;;;;;5031880;28;20077;-61
2021/12/04 03:46:00;;;;;;;154.82;42.08;;;19.00;52.10;;;;;;5030700;28;20094;-61
2021/12/04 03:51:03;;;;;;;154.68;43.00;;;19.00;51.90;;;;;;5031606;28;20093;-62
2021/12/04 03:53:29;;;;;;;165.85;46.25;;;18.90;51.50;;;;;;5048320;28;20128;-62
2021/12/04 03:55:56;;;;;;;146.95;43.60;;;18.90;51.50;;;;;;5031116;28;20507;-61
2021/12/04 03:58:23;;;;;;;175.68;47.03;;;18.90;51.70;;;;;;5015994;28;20109;-61
2021/12/04 04:00:50;;;;;;;166.55;48.80;;;18.90;51.90;;;;;;5032960;28;20123;-62
2021/12/04 04:03:16;;;;;;;174.52;46.85;;;18.90;52.30;;;;;;5033036;28;20084;-64
2021/12/04 04:05:43;;;;;;;209.45;49.22;;;18.80;52.60;;;;;;5030200;28;20070;-63
2021/12/04 04:08:13;;;;;;;203.07;52.40;;;18.90;52.60;;;;;;5047969;28;20094;-62
2021/12/04 04:10:41;;;;;;;157.15;48.72;;;18.80;52.60;;;;;;5047363;28;20160;-59
2021/12/04 04:13:11;;;;;;;192.70;53.05;;;18.80;52.50;;;;;;5030800;28;20549;-63
2021/12/04 04:15:38;;;;;;;210.02;55.03;;;18.80;52.30;;;;;;5031654;28;20429;-63
2021/12/04 04:18:05;;;;;;;193.20;58.92;;;18.70;52.40;;;;;;5038477;28;20593;-64
2021/12/04 04:20:32;;;;;;;192.88;56.85;;;18.80;52.60;;;;;;5060300;28;20078;-63
2021/12/04 04:22:58;;;;;;;188.52;57.90;;;18.80;52.80;;;;;;5032920;28;20177;-61
2021/12/04 04:25:25;;;;;;;195.18;56.15;;;18.70;52.80;;;;;;5066265;28;20635;-61
2021/12/04 04:27:51;;;;;;;210.88;61.22;;;18.60;52.90;;;;;;5031492;28;20091;-61
2021/12/04 04:30:19;;;;;;;202.35;62.13;;;18.60;53.10;;;;;;5030598;28;20070;-63
2021/12/04 04:32:48;;;;;;;207.60;66.63;;;18.60;53.50;;;;;;5047492;28;20086;-62
2021/12/04 04:35:18;;;;;;;218.00;65.28;;;18.50;53.50;;;;;;5031143;28;20204;-63
2021/12/04 05:10:15;;;;;;;174.70;53.92;;;18.40;54.30;;;;;;5031894;28;20091;-62
2021/12/04 05:13:56;;;;;;;174.68;47.40;;;18.20;53.30;;;;;;4990779;28;20108;-62
2021/12/04 05:16:29;;;;;;;161.38;45.50;;;18.20;53.60;;;;;;4974108;28;20097;-61
2021/12/04 05:18:59;;;;;;;148.27;45.15;;;18.20;53.70;;;;;;4990149;28;20526;-65
2021/12/04 05:21:25;;;;;;;172.52;47.40;;;18.20;53.60;;;;;;4973878;28;20078;-61
2021/12/04 05:23:54;;;;;;;147.68;48.42;;;18.10;53.70;;;;;;4999097;28;20129;-61
2021/12/04 05:26:28;;;;;;;149.23;45.33;;;18.10;53.60;;;;;;4991362;28;20441;-63
2021/12/04 05:28:58;;;;;;;147.50;43.88;;;18.00;54.00;;;;;;4990534;28;20086;-59
2021/12/04 05:31:25;;;;;;;135.18;42.70;;;17.90;54.10;;;;;;4972599;28;20222;-63
2021/12/04 05:33:52;;;;;;;147.65;45.55;;;17.90;53.80;;;;;;4990448;28;20178;-60
2021/12/04 05:36:20;;;;;;;127.82;44.35;;;17.90;53.90;;;;;;4988856;28;20079;-63
2021/12/04 05:38:46;;;;;;;144.65;43.38;;;17.80;54.30;;;;;;4988619;28;20092;-61
2021/12/04 05:41:14;;;;;;;137.00;43.67;;;17.80;54.50;;;;;;4989948;28;20169;-60
2021/12/04 05:43:40;;;;;;;141.70;41.50;;;17.70;54.60;;;;;;4988577;28;20087;-62
2021/12/04 05:48:48;;;;;;;131.07;38.53;;;17.70;54.30;;;;;;4995177;28;19981;-62
2021/12/04 05:54:06;;;;;;;109.50;34.38;;;17.70;54.10;;;;;;5030943;28;20466;-62
2021/12/04 05:56:31;;;;;;;121.07;32.30;;;17.70;54.10;;;;;;5030441;28;20192;-62
2021/12/04 05:58:59;;;;;;;95.05;30.27;;;17.60;54.10;;;;;;5013390;28;20544;-61
2021/12/04 06:01:27;;;;;;;99.90;28.45;;;17.60;53.90;;;;;;5045979;28;20082;-61
2021/12/04 06:03:53;;;;;;;97.03;27.02;;;17.60;53.70;;;;;;5046046;28;20089;-60
2021/12/04 06:06:20;;;;;;;100.57;27.05;;;17.50;53.70;;;;;;5029301;28;20124;-63
2021/12/04 06:08:46;;;;;;;;;;;17.50;53.90;;;;;;5029403;28;20092;-64
2021/12/04 06:11:13;;;;;;;92.55;23.98;;;17.50;53.90;;;;;;5045769;28;19973;-63
2021/12/04 06:13:40;;;;;;;71.07;23.58;;;17.50;54.00;;;;;;5045448;28;20520;-59
2021/12/04 06:16:06;;;;;;;91.60;23.42;;;17.50;54.00;;;;;;5028990;28;20078;-64
2021/12/04 06:18:34;;;;;;;80.05;25.55;;;17.40;54.20;;;;;;5029033;28;20111;-61
2021/12/04 06:23:45;;;;;;;86.78;23.92;;;17.30;54.10;;;;;;5031149;28;20081;-62
2021/12/04 06:26:11;;;;;;;80.47;26.42;;;17.30;54.10;;;;;;5030128;28;20612;-61
2021/12/04 06:28:38;;;;;;;78.20;21.95;;;17.30;54.50;;;;;;5029459;28;20112;-63
2021/12/04 06:31:07;;;;;;;73.00;21.25;;;17.20;54.40;;;;;;5028477;28;20173;-62
2021/12/04 06:33:34;;;;;;;67.10;20.83;;;17.20;54.50;;;;;;5028961;28;20140;-61
2021/12/04 06:36:00;;;;;;;75.05;24.65;;;17.20;54.70;;;;;;5028972;28;20120;-63
2021/12/04 06:38:27;;;;;;;73.40;23.83;;;17.20;54.80;;;;;;5029884;28;20076;-61
2021/12/04 06:40:54;;;;;;;;;;;17.20;54.90;;;;;;5028824;28;20089;-63
2021/12/04 06:43:20;;;;;;;;;;;17.20;55.20;;;;;;5030694;28;19957;-61
2021/12/04 06:45:56;;;;;;;64.18;21.17;;;17.20;55.20;;;;;;5029907;28;19957;-62
2021/12/04 06:48:26;;;;;;;59.20;18.30;;;17.10;55.40;;;;;;5045201;28;20092;-62
2021/12/04 06:50:57;;;;;;;58.42;19.35;;;17.10;55.40;;;;;;5029217;28;20482;-63
2021/12/04 06:53:29;;;;;;;59.25;21.42;;;17.10;55.80;;;;;;5029413;28;20573;-63
2021/12/04 06:55:58;;;;;;;75.82;23.00;;;17.10;56.00;;;;;;5028701;28;20074;-60
2021/12/04 06:58:27;;;;;;;69.00;23.35;;;17.00;56.60;;;;;;5029567;28;20074;-63
2021/12/04 07:00:54;;;;;;;70.13;25.67;;;17.00;56.60;;;;;;5035447;28;20074;-64
2021/12/04 07:03:21;;;;;;;75.35;23.08;;;17.00;57.00;;;;;;5029795;28;20066;-62
2021/12/04 07:05:47;;;;;;;70.75;23.27;;;16.90;57.20;;;;;;5045311;28;20078;-62
2021/12/04 07:08:15;;;;;;;67.57;22.00;;;16.80;57.50;;;;;;5031606;28;20429;-63
2021/12/04 07:10:42;;;;;;;73.28;22.75;;;16.80;57.40;;;;;;5032714;28;20066;-62
2021/12/04 07:13:09;;;;;;;81.40;23.15;;;16.80;57.50;;;;;;5049121;28;20074;-61
2021/12/04 07:15:35;;;;;;;68.45;22.60;;;16.80;57.70;;;;;;5031192;28;20077;-63
2021/12/04 07:18:03;;;;;;;63.35;22.00;;;16.80;57.80;;;;;;5032683;28;20224;-62
2021/12/04 07:20:30;;;;;;;75.88;23.17;;;16.80;58.00;;;;;;5032001;28;20094;-62
2021/12/04 07:22:59;;;;;;;63.40;20.75;;;16.80;58.00;;;;;;5017529;28;20626;-64
2021/12/04 07:25:26;;;;;;;69.82;20.38;;;16.70;58.50;;;;;;5031129;28;20105;-65
2021/12/04 07:27:53;;;;;;;65.18;20.67;;;16.60;59.30;;;;;;5032517;28;20090;-65
2021/12/04 07:30:21;;;;;;;65.15;20.02;;;16.60;60.00;;;;;;5030650;28;20093;-63
2021/12/04 07:32:48;;;;;;;60.97;19.80;;;16.50;60.10;;;;;;5048721;28;20086;-63
2021/12/04 07:35:15;;;;;;;66.18;19.85;;;16.50;60.90;;;;;;5032001;28;20156;-61
2021/12/04 07:37:43;;;;;;;56.33;18.33;;;16.40;61.20;;;;;;5032042;28;20128;-60
2021/12/04 07:40:10;;;;;;;58.50;20.27;;;16.40;61.30;;;;;;5032071;28;20193;-62
2021/12/04 07:42:36;;;;;;;65.78;20.98;;;16.40;61.50;;;;;;5048449;28;20070;-64
2021/12/04 07:45:04;;;;;;;;;;;16.40;61.60;;;;;;5032229;28;20120;-65
2021/12/04 07:47:30;;;;;;;;;;;16.30;61.80;;;;;;5032221;28;20023;-63
2021/12/04 07:49:56;;;;;;;57.78;19.15;;;16.30;62.10;;;;;;5032069;28;19993;-63
2021/12/04 07:52:23;;;;;;;60.50;20.08;;;16.20;62.30;;;;;;5031946;28;20155;-60
2021/12/04 07:54:50;;;;;;;;;;;16.20;62.90;;;;;;5032219;28;20117;-63
2021/12/04 07:57:17;;;;;;;67.10;21.67;;;16.20;63.40;;;;;;5031810;28;19957;-61
2021/12/04 07:59:43;;;;;;;78.22;22.63;;;16.10;63.70;;;;;;5031846;28;20085;-61
2021/12/04 08:02:10;;;;;;;74.90;20.40;;;16.20;64.00;;;;;;5033037;28;20070;-61
2021/12/04 08:04:36;;;;;;;;;;;16.10;63.90;;;;;;5031838;28;20066;-61
2021/12/04 08:07:03;;;;;;;73.53;20.83;;;16.10;64.10;;;;;;5031509;28;20367;-60
2021/12/04 08:09:29;;;;;;;81.38;21.70;;;16.10;64.60;;;;;;5031527;28;20455;-62
2021/12/04 08:11:56;;;;;;;61.35;21.20;;;16.00;65.10;;;;;;5031471;28;20069;-61
2021/12/04 08:14:22;;;;;;;66.80;20.63;;;16.00;65.20;;;;;;5015148;28;20081;-61
2021/12/04 08:16:48;;;;;;;;;;;16.10;65.00;;;;;;5033052;28;20078;-61
2021/12/04 08:19:15;;;;;;;81.03;22.83;;;16.00;65.40;;;;;;5032225;28;19958;-61
2021/12/04 08:21:41;;;;;;;;;;;16.00;65.80;;;;;;5032259;28;20425;-61
2021/12/04 08:24:07;;;;;;;87.43;21.90;;;16.00;65.50;;;;;;5034119;28;19958;-63
2021/12/04 08:26:37;;;;;;;63.50;21.40;;;15.90;66.30;;;;;;5031001;28;20078;-60
2021/12/04 08:29:04;;;;;;;87.18;22.10;;;15.90;66.00;;;;;;5030564;28;20089;-61
2021/12/04 08:31:30;;;;;;;72.20;22.52;;;15.80;66.30;;;;;;5031149;28;20101;-60
2021/12/04 08:33:56;;;;;;;;;;;15.70;66.90;;;;;;5030089;28;20517;-62
2021/12/04 08:36:23;;;;;;;81.60;22.60;;;15.80;66.80;;;;;;5029466;28;19996;-62
2021/12/04 08:38:49;;;;;;;;;;;15.80;66.50;;;;;;5047853;28;20074;-60
2021/12/04 08:41:16;;;;;;;68.13;21.73;;;15.80;66.30;;;;;;5030923;28;20076;-62
2021/12/04 08:43:44;;;;;;;66.65;21.70;;;15.80;66.50;;;;;;5030834;28;20231;-62
2021/12/04 08:46:11;;;;;;;61.88;21.20;;;15.80;66.60;;;;;;5047443;28;20494;-62
2021/12/04 08:48:37;;;;;;;74.05;27.60;;;15.80;67.00;;;;;;5046749;28;20136;-63
2021/12/04 08:51:04;;;;;;;;;;;15.70;67.40;;;;;;5031805;28;20096;-60
2021/12/04 08:53:30;;;;;;;99.72;29.65;;;15.70;67.90;;;;;;5030441;28;20048;-63
2021/12/04 08:55:56;;;;;;;;;;;15.70;68.10;;;;;;5047657;28;20454;-61
2021/12/04 08:58:23;;;;;;;87.90;28.13;;;15.70;69.30;;;;;;5029601;28;20119;-63
2021/12/04 09:00:52;;;;;;;;;;;15.70;68.90;;;;;;5032315;28;20126;-63
2021/12/04 09:03:25;;;;;;;100.82;32.05;;;15.60;69.10;;;;;;5046806;28;20416;-62
2021/12/04 09:05:52;;;;;;;95.47;32.08;;;15.50;70.60;;;;;;5028753;28;20105;-62
2021/12/04 09:08:21;;;;;;;89.65;28.88;;;15.40;71.30;;;;;;5013951;28;20097;-61
2021/12/04 09:10:49;;;;;;;95.07;30.00;;;15.30;71.70;;;;;;5030605;28;20086;-61
2021/12/04 09:13:16;;;;;;;109.07;31.10;;;15.20;72.50;;;;;;5031597;28;20651;-61
2021/12/04 09:15:44;;;;;;;114.32;31.38;;;15.30;73.60;;;;;;5046768;28;20135;-62
2021/12/04 09:18:10;;;;;;;118.57;34.00;;;15.30;73.30;;;;;;5031556;28;20081;-64
2021/12/04 09:20:37;;;;;;;104.15;32.20;;;15.40;73.20;;;;;;5030655;28;20147;-63
2021/12/04 09:23:07;;;;;;;114.20;32.35;;;15.40;73.10;;;;;;5034061;28;20086;-62
2021/12/04 09:25:37;;;;;;;122.57;34.08;;;15.30;73.20;;;;;;5046937;28;20157;-63
2021/12/04 09:36:26;;;;;;;137.90;38.00;;;15.20;74.70;;;;;;5031368;28;20072;-66
2021/12/04 10:00:56;;;;;;;103.32;40.65;;;15.20;74.80;;;;;;5030693;28;20082;-63
2021/12/04 10:12:22;;;;;;;131.35;42.03;;;15.20;74.60;;;;;;5030871;28;20097;-60
2021/12/04 10:20:54;;;;;;;146.05;46.25;;;15.20;74.00;;;;;;5031614;28;20087;-65
2021/12/04 10:34:31;;;;;;;120.55;45.55;;;15.20;74.50;;;;;;5030265;28;20088;-64
2021/12/04 10:37:26;;;;;;;138.98;45.45;;;15.10;73.70;;;;;;5028973;28;20078;-68
2021/12/04 10:39:55;;;;;;;138.40;46.33;;;15.10;73.70;;;;;;5026619;28;20153;-64
2021/12/04 10:42:27;;;;;;;141.88;48.55;;;15.10;73.70;;;;;;5045343;28;20081;-63
2021/12/04 10:44:55;;;;;;;143.85;47.50;;;15.10;74.10;;;;;;5028929;28;20065;-63
2021/12/04 10:47:25;;;;;;;118.22;44.88;;;15.20;74.60;;;;;;5045354;28;20110;-65
2021/12/04 10:50:24;;;;;;;144.98;47.33;;;15.10;74.20;;;;;;5045355;28;20467;-65
2021/12/04 10:52:59;;;;;;;120.78;46.38;;;15.10;74.50;;;;;;5028929;28;20369;-64
2021/12/04 11:26:42;;;;;;;149.95;49.03;;;14.70;76.30;;;;;;5046183;28;20098;-66
2021/12/04 11:37:09;;;;;;;132.07;48.92;;;14.60;77.80;;;;;;5029550;28;20096;-65
2021/12/04 11:45:27;;;;;;;150.38;48.80;;;14.40;78.20;;;;;;5029752;28;20116;-64
2021/12/04 11:48:01;;;;;;;131.40;46.90;;;14.40;78.40;;;;;;5028347;28;20101;-63
2021/12/04 11:50:31;;;;;;;136.15;47.70;;;14.50;78.00;;;;;;5029864;28;20112;-65
2021/12/04 11:53:03;;;;;;;138.63;45.92;;;14.50;78.40;;;;;;5012067;28;20443;-63
2021/12/04 11:55:36;;;;;;;126.28;45.00;;;14.50;78.20;;;;;;5032000;28;20070;-63
2021/12/04 11:58:03;;;;;;;135.23;49.13;;;14.50;78.10;;;;;;5048439;28;20082;-64
2021/12/04 12:00:33;;;;;;;129.48;44.47;;;14.50;77.90;;;;;;5032122;28;20078;-63
2021/12/04 12:03:15;;;;;;;111.68;44.42;;;14.50;78.00;;;;;;5048479;28;20554;-65
2021/12/04 12:05:59;;;;;;;119.60;44.90;;;14.50;77.50;;;;;;5019196;28;20234;-63
2021/12/04 12:08:33;;;;;;;141.40;46.38;;;14.50;77.50;;;;;;5026373;28;20113;-63
2021/12/04 12:11:04;;;;;;;128.10;48.25;;;14.50;76.90;;;;;;5015126;28;20070;-64
2021/12/04 12:13:44;;;;;;;135.38;48.90;;;14.50;77.80;;;;;;5031467;28;20094;-63
2021/12/04 12:16:11;;;;;;;123.75;47.83;;;14.50;78.10;;;;;;5031837;28;20081;-65
2021/12/04 12:18:56;;;;;;;127.15;47.75;;;14.40;77.20;;;;;;5030619;28;20122;-63
2021/12/04 12:21:33;;;;;;;150.70;52.35;;;14.40;77.10;;;;;;5031350;28;20136;-63
2021/12/04 12:33:01;;;;;;;120.60;48.22;;;14.30;78.00;;;;;;5031590;28;20601;-65
2021/12/04 12:38:47;;;;;;;121.97;46.30;;;14.30;78.80;;;;;;5031904;28;20129;-63
2021/12/04 12:41:20;;;;;;;126.82;46.13;;;14.20;77.50;;;;;;5032730;28;20074;-65
2021/12/04 12:43:59;;;;;;;131.00;45.63;;;14.20;77.30;;;;;;5030892;28;20081;-65
2021/12/04 12:46:58;;;;;;;110.90;46.13;;;14.20;77.60;;;;;;5030589;28;20084;-63
2021/12/04 12:49:33;;;;;;;107.25;44.22;;;14.20;77.50;;;;;;5029678;28;20568;-64
2021/12/04 12:52:20;;;;;;;109.05;45.35;;;14.20;77.40;;;;;;5029333;28;20469;-65
2021/12/04 12:55:04;;;;;;;119.95;48.08;;;14.20;77.90;;;;;;5028966;28;20185;-63
2021/12/04 12:57:36;;;;;;;117.43;46.85;;;14.10;77.70;;;;;;5031203;28;20093;-63
2021/12/04 13:14:16;;;;;;;124.90;44.83;;;13.70;80.00;;;;;;5031012;28;20084;-65
2021/12/04 13:16:48;;;;;;;111.68;43.72;;;13.70;79.80;;;;;;5015583;28;20592;-63
2021/12/04 13:19:18;;;;;;;121.03;44.80;;;13.70;79.70;;;;;;5035916;28;20074;-65
2021/12/04 13:21:49;;;;;;;114.68;43.78;;;13.80;79.90;;;;;;5033579;28;20073;-66
2021/12/04 13:24:16;;;;;;;103.00;42.33;;;13.80;80.40;;;;;;5053940;28;20081;-65
2021/12/04 13:26:48;;;;;;;117.57;42.75;;;13.70;79.90;;;;;;5046440;28;20104;-67
2021/12/04 13:29:17;;;;;;;108.32;41.13;;;13.70;80.90;;;;;;5030471;28;20086;-67
2021/12/04 13:31:44;;;;;;;102.60;41.42;;;13.70;81.30;;;;;;5046357;28;20070;-65
2021/12/04 13:34:13;;;;;;;116.25;43.30;;;13.70;81.20;;;;;;5046683;28;20157;-65
2021/12/04 13:36:40;;;;;;;103.57;43.67;;;13.70;81.20;;;;;;5029990;28;20093;-66
2021/12/04 13:39:14;;;;;;;99.63;43.83;;;13.70;81.30;;;;;;5014889;28;20202;-65
2021/12/04 13:41:43;;;;;;;121.85;42.53;;;13.60;81.20;;;;;;5051368;28;20131;-64
2021/12/04 13:44:13;;;;;;;109.20;44.95;;;13.70;81.30;;;;;;5031011;28;20169;-63
2021/12/04 13:46:50;;;;;;;109.88;42.13;;;13.70;81.20;;;;;;5046280;28;20442;-63
2021/12/04 13:49:26;;;;;;;96.25;40.17;;;13.70;81.10;;;;;;5030394;28;20114;-66
2021/12/04 13:51:55;;;;;;;100.03;42.25;;;13.70;80.60;;;;;;5031815;28;20126;-63
2021/12/04 13:54:27;;;;;;;107.88;43.78;;;13.70;79.90;;;;;;5030507;28;20161;-64
2021/12/04 13:56:53;;;;;;;109.25;41.70;;;13.70;80.20;;;;;;5045240;28;20077;-64
2021/12/04 13:59:25;;;;;;;104.65;42.83;;;13.60;80.70;;;;;;5046385;28;20166;-65
2021/12/04 14:01:52;;;;;;;108.38;42.83;;;13.60;80.80;;;;;;5029452;28;20074;-65
2021/12/04 14:04:19;;;;;;;107.70;40.53;;;13.60;80.80;;;;;;5029512;28;20086;-65
2021/12/04 14:06:55;;;;;;;106.82;40.45;;;13.60;81.30;;;;;;5028391;28;20070;-65
2021/12/04 14:09:24;;;;;;;89.60;40.17;;;13.60;80.90;;;;;;5030485;28;20100;-67
2021/12/04 14:11:53;;;;;;;103.95;40.95;;;13.60;80.60;;;;;;5045581;28;20523;-66
2021/12/04 14:14:23;;;;;;;120.82;42.75;;;13.60;79.90;;;;;;5029353;28;20118;-65
2021/12/04 14:16:52;;;;;;;100.30;41.78;;;13.60;80.30;;;;;;5028713;28;20520;-63
2021/12/04 14:19:26;;;;;;;106.90;42.35;;;13.60;80.70;;;;;;5046020;28;20172;-61
2021/12/04 14:22:17;;;;;;;115.88;42.85;;;13.50;80.90;;;;;;5045893;28;20078;-63
2021/12/04 14:24:54;;;;;;;103.80;42.80;;;13.50;81.30;;;;;;5017898;28;20086;-66
2021/12/04 14:27:25;;;;;;;103.45;41.78;;;13.50;81.30;;;;;;5045272;28;20106;-62
2021/12/04 14:29:56;;;;;;;110.20;40.55;;;13.40;81.50;;;;;;5030828;28;20153;-60
2021/12/04 14:32:25;;;;;;;106.53;41.17;;;13.50;82.10;;;;;;5016670;28;20073;-63
2021/12/04 14:35:13;;;;;;;113.03;41.72;;;13.50;82.10;;;;;;5050800;28;20093;-67
2021/12/04 14:37:41;;;;;;;105.68;40.70;;;13.50;81.90;;;;;;5030114;28;20165;-60
2021/12/04 14:40:13;;;;;;;100.15;41.00;;;13.50;81.80;;;;;;5028724;28;20148;-61
2021/12/04 14:42:42;;;;;;;119.28;43.92;;;13.40;81.70;;;;;;5044345;28;20078;-63
2021/12/04 14:45:20;;;;;;;108.88;45.55;;;13.30;81.30;;;;;;5045512;28;20157;-64
2021/12/04 14:48:02;;;;;;;121.95;45.88;;;13.20;82.10;;;;;;5029108;28;20112;-63
2021/12/04 14:50:28;;;;;;;119.10;46.25;;;13.20;82.30;;;;;;5029788;28;20109;-65
2021/12/04 14:52:58;;;;;;;113.68;44.78;;;13.20;82.40;;;;;;5012858;28;20144;-61
2021/12/04 14:55:32;;;;;;;124.07;46.45;;;13.30;83.00;;;;;;5027412;28;20509;-63
2021/12/04 14:58:00;;;;;;;109.40;45.63;;;13.20;83.00;;;;;;5045654;28;20073;-65
2021/12/04 15:00:30;;;;;;;124.20;46.58;;;13.20;83.50;;;;;;5028557;28;20082;-64
2021/12/04 15:03:19;;;;;;;139.75;46.33;;;13.20;83.60;;;;;;5028532;28;20113;-66
2021/12/04 15:05:48;;;;;;;126.40;46.42;;;13.30;84.10;;;;;;5027944;28;20165;-62
2021/12/04 15:08:22;;;;;;;126.50;46.10;;;13.40;83.80;;;;;;5045391;28;20086;-62
2021/12/04 15:11:08;;;;;;;132.65;48.67;;;13.40;83.50;;;;;;5045418;28;20081;-63
2021/12/04 15:13:42;;;;;;;130.65;48.13;;;13.40;84.00;;;;;;5014647;28;20185;-63
2021/12/04 15:16:13;;;;;;;126.55;48.72;;;13.50;83.20;;;;;;5056424;28;20160;-64
2021/12/04 15:18:41;;;;;;;157.60;52.08;;;13.60;81.70;;;;;;5045246;28;20082;-64
2021/12/04 15:21:15;;;;;;;181.05;56.28;;;13.60;80.10;;;;;;5029712;28;20100;-64
2021/12/04 15:23:52;;;;;;;184.80;57.28;;;13.60;78.80;;;;;;5032375;28;20436;-64
2021/12/04 15:26:21;;;;;;;195.80;57.05;;;13.70;78.70;;;;;;5027316;28;20078;-64
2021/12/04 15:28:51;;;;;;;200.35;56.97;;;13.80;79.50;;;;;;5030914;28;20178;-62
2021/12/04 15:31:21;;;;;;;187.90;57.67;;;13.90;78.80;;;;;;5032456;28;20200;-62
2021/12/04 15:33:51;;;;;;;182.73;54.45;;;14.00;78.30;;;;;;5017954;28;20078;-63
2021/12/04 15:36:30;;;;;;;173.13;55.05;;;14.10;78.90;;;;;;5040496;28;20504;-63
2021/12/04 15:38:59;;;;;;;182.65;54.85;;;14.30;78.90;;;;;;5048363;28;20144;-63
2021/12/04 15:47:19;;;;;;;164.65;55.42;;;14.70;76.00;;;;;;5033398;28;20101;-64
2021/12/04 15:55:20;;;;;;;199.02;57.45;;;15.40;72.50;;;;;;5032534;28;20081;-62
2021/12/04 15:58:03;;;;;;;186.57;53.08;;;15.80;70.20;;;;;;5048609;28;20081;-62
2021/12/04 16:00:32;;;;;;;174.40;52.63;;;16.40;67.40;;;;;;5031661;28;20082;-63
2021/12/04 16:03:01;;;;;;;164.35;55.15;;;17.50;64.70;;;;;;5031645;28;20078;-65